Time;durP1;ratioP1;P1;durP2;ratioP2;P2;SDS_P1;SDS_P2;PMS_P1;PMS_P2;Temp;Humidity;BMP_temperature;BMP_pressure;BME280_temperature;BME280_humidity;BME280_pressure;Samples;Min_cycle;Max_cycle;Signal;HPM_P1;HPM_P2
2023/05/24 00:02:12;;;;;;;13.87;3.27;;;9.00;99.90;;;;;;5029921;28;20287;-73
2023/05/24 00:04:40;;;;;;;15.03;3.20;;;9.00;99.90;;;;;;5024265;28;20689;-73
2023/05/24 00:07:07;;;;;;;7.87;3.07;;;9.00;99.90;;;;;;5032363;28;20244;-72
2023/05/24 00:09:34;;;;;;;10.03;2.53;;;9.00;99.90;;;;;;5026048;28;20203;-73
2023/05/24 00:12:01;;;;;;;8.90;2.73;;;9.00;99.90;;;;;;5030442;28;20246;-73
2023/05/24 00:14:28;;;;;;;9.40;3.40;;;8.90;99.90;;;;;;5020439;28;20615;-72
2023/05/24 00:16:55;;;;;;;10.17;3.30;;;8.90;99.90;;;;;;5030427;28;20195;-72
2023/05/24 00:19:22;;;;;;;11.70;3.33;;;8.90;99.90;;;;;;5026373;28;20470;-72
2023/05/24 00:21:49;;;;;;;9.80;3.10;;;8.80;99.90;;;;;;5026487;28;20235;-72
2023/05/24 00:24:16;;;;;;;15.73;3.00;;;8.70;99.90;;;;;;5025851;28;20238;-72
2023/05/24 00:26:43;;;;;;;11.27;3.87;;;8.80;99.90;;;;;;5012425;28;20218;-72
2023/05/24 00:29:10;;;;;;;12.87;3.00;;;8.80;99.90;;;;;;5029864;28;20718;-72
2023/05/24 00:31:37;;;;;;;11.77;2.87;;;8.70;99.90;;;;;;5025773;28;20719;-72
2023/05/24 00:34:03;;;;;;;9.20;3.03;;;8.70;99.90;;;;;;5029854;28;20672;-72
2023/05/24 00:36:31;;;;;;;8.77;3.80;;;8.70;99.90;;;;;;5026084;28;20292;-72
2023/05/24 00:38:58;;;;;;;9.93;2.87;;;8.70;99.90;;;;;;5030004;28;20208;-71
2023/05/24 00:41:25;;;;;;;13.73;3.33;;;8.70;99.90;;;;;;5029196;28;20289;-72
2023/05/24 00:43:52;;;;;;;11.23;3.10;;;8.60;99.90;;;;;;5022594;28;20197;-73
2023/05/24 00:46:23;;;;;;;12.10;3.10;;;8.60;99.90;;;;;;5026279;28;20251;-71
2023/05/24 00:48:51;;;;;;;13.77;3.23;;;8.60;99.90;;;;;;5026066;28;20213;-72
2023/05/24 00:51:18;;;;;;;17.80;3.53;;;8.60;99.90;;;;;;5025397;28;20717;-72
2023/05/24 00:53:47;;;;;;;7.57;2.77;;;8.60;99.90;;;;;;5025371;28;20205;-73
2023/05/24 00:56:15;;;;;;;11.70;3.70;;;8.60;99.90;;;;;;5029219;28;20212;-75
2023/05/24 00:58:43;;;;;;;18.10;3.47;;;8.60;99.90;;;;;;5025862;28;20656;-72
2023/05/24 01:01:10;;;;;;;10.00;3.13;;;8.60;99.90;;;;;;5025857;28;20286;-71
2023/05/24 01:03:38;;;;;;;14.57;3.20;;;8.60;99.90;;;;;;5025730;28;20208;-72
2023/05/24 01:06:06;;;;;;;14.63;3.33;;;8.50;99.90;;;;;;5031543;28;20229;-73
2023/05/24 01:08:46;;;;;;;16.67;3.67;;;8.60;99.90;;;;;;5024883;28;20204;-71
2023/05/24 01:11:29;;;;;;;17.40;3.37;;;8.50;99.90;;;;;;5023710;28;20208;-72
2023/05/24 01:14:15;;;;;;;14.60;3.57;;;8.50;99.90;;;;;;5023845;28;20205;-72
2023/05/24 01:17:05;;;;;;;14.73;3.73;;;8.50;99.90;;;;;;5015576;28;20215;-72
2023/05/24 01:19:56;;;;;;;11.47;2.90;;;8.50;99.90;;;;;;5024155;28;20605;-72
2023/05/24 01:23:00;;;;;;;13.83;3.73;;;8.50;99.90;;;;;;5024560;28;20221;-73
2023/05/24 01:25:46;;;;;;;14.63;3.40;;;8.50;99.90;;;;;;5029792;28;20207;-72
2023/05/24 01:28:16;;;;;;;5.83;3.17;;;8.40;99.90;;;;;;5028060;28;20253;-72
2023/05/24 01:30:43;;;;;;;13.40;3.20;;;8.40;99.90;;;;;;5021150;28;20223;-73
2023/05/24 01:33:11;;;;;;;12.27;3.50;;;8.40;99.90;;;;;;5046149;28;20254;-74
2023/05/24 01:35:41;;;;;;;9.17;3.00;;;8.40;99.90;;;;;;5045804;28;20269;-73
2023/05/24 01:38:13;;;;;;;10.73;3.00;;;8.70;99.90;;;;;;5044878;28;20214;-75
2023/05/24 01:40:40;;;;;;;11.30;3.70;;;8.40;99.90;;;;;;5043719;28;20286;-72
2023/05/24 01:43:29;;;;;;;16.73;3.57;;;8.40;99.90;;;;;;5038708;28;20291;-73
2023/05/24 01:46:24;;;;;;;17.73;3.90;;;8.40;99.90;;;;;;5041205;28;20218;-72
2023/05/24 01:49:05;;;;;;;11.67;3.60;;;8.30;99.90;;;;;;5041363;28;20290;-73
2023/05/24 01:51:47;;;;;;;12.20;3.70;;;8.30;99.90;;;;;;5042323;28;20647;-74
2023/05/24 01:54:19;;;;;;;9.87;3.40;;;8.30;99.90;;;;;;5046208;28;20230;-72
2023/05/24 01:56:47;;;;;;;10.87;3.07;;;8.20;99.90;;;;;;5045558;28;20249;-74
2023/05/24 01:59:15;;;;;;;17.17;3.63;;;8.20;99.90;;;;;;5052055;28;20562;-72
2023/05/24 02:01:42;;;;;;;12.03;3.57;;;8.20;99.90;;;;;;5053043;28;20623;-72
2023/05/24 02:04:09;;;;;;;17.30;4.37;;;8.20;99.90;;;;;;5047373;28;20208;-72
2023/05/24 02:06:37;;;;;;;13.67;4.07;;;8.20;99.90;;;;;;5054096;28;20210;-73
2023/05/24 02:09:03;;;;;;;17.60;3.23;;;8.10;99.90;;;;;;5053033;28;20202;-72
2023/05/24 02:11:30;;;;;;;16.03;3.57;;;8.10;99.90;;;;;;5052788;28;20238;-72
2023/05/24 02:13:57;;;;;;;14.93;3.77;;;8.10;99.90;;;;;;5048249;28;20223;-73
2023/05/24 02:16:25;;;;;;;8.37;3.47;;;8.10;99.90;;;;;;5052476;28;20269;-74
2023/05/24 02:18:52;;;;;;;12.80;4.10;;;8.10;99.90;;;;;;5052685;28;20297;-72
2023/05/24 02:21:19;;;;;;;14.33;3.93;;;8.10;99.90;;;;;;5048710;28;20271;-72
2023/05/24 02:23:45;;;;;;;17.67;4.63;;;8.00;99.90;;;;;;5048598;28;20257;-73
2023/05/24 02:26:13;;;;;;;10.57;3.50;;;8.00;99.90;;;;;;5045871;28;20240;-72
2023/05/24 02:28:40;;;;;;;10.30;3.40;;;8.10;99.90;;;;;;5048384;28;20207;-73
2023/05/24 02:31:07;;;;;;;12.17;4.30;;;8.00;99.90;;;;;;5045801;28;20223;-72
2023/05/24 02:33:36;;;;;;;12.67;3.80;;;8.10;99.90;;;;;;5031960;28;20211;-72
2023/05/24 02:36:03;;;;;;;13.50;4.27;;;8.10;99.90;;;;;;5028573;28;20231;-72
2023/05/24 02:38:30;;;;;;;17.00;3.63;;;8.10;99.90;;;;;;5022434;28;20210;-72
2023/05/24 02:40:57;;;;;;;13.30;3.30;;;8.10;99.90;;;;;;5013340;28;20246;-73
2023/05/24 02:43:24;;;;;;;12.73;3.80;;;8.10;99.90;;;;;;5022996;28;20243;-72
2023/05/24 02:45:51;;;;;;;18.27;3.57;;;8.10;99.90;;;;;;5031906;28;20227;-72
2023/05/24 02:48:17;;;;;;;12.63;3.70;;;8.10;99.90;;;;;;5010466;28;20211;-71
2023/05/24 02:50:44;;;;;;;15.60;4.47;;;8.10;99.90;;;;;;5032143;28;20209;-73
2023/05/24 02:53:11;;;;;;;12.93;3.63;;;8.00;99.90;;;;;;5028988;28;20203;-71
2023/05/24 02:55:38;;;;;;;11.33;4.13;;;8.10;99.90;;;;;;5031968;28;20258;-72
2023/05/24 02:58:05;;;;;;;14.67;4.37;;;8.00;99.90;;;;;;5026611;28;20263;-72
2023/05/24 03:00:31;;;;;;;13.37;3.60;;;8.10;99.90;;;;;;5014191;28;21038;-71
2023/05/24 03:03:01;;;;;;;13.57;4.20;;;8.10;99.90;;;;;;5027744;28;20259;-73
2023/05/24 03:05:28;;;;;;;12.10;3.90;;;8.20;99.90;;;;;;5035094;28;20195;-73
2023/05/24 03:07:55;;;;;;;12.57;3.70;;;8.20;99.90;;;;;;5031676;28;20237;-71
2023/05/24 03:10:22;;;;;;;21.97;4.73;;;8.20;99.90;;;;;;5031608;28;20212;-72
2023/05/24 03:12:49;;;;;;;13.47;3.63;;;8.30;99.90;;;;;;5027312;28;20830;-73
2023/05/24 03:15:15;;;;;;;14.17;3.27;;;8.40;99.90;;;;;;5027743;28;20283;-73
2023/05/24 03:17:42;;;;;;;16.43;3.80;;;8.40;99.90;;;;;;5031649;28;20206;-72
2023/05/24 03:20:10;;;;;;;8.47;3.73;;;8.50;99.90;;;;;;5025903;28;20662;-73
2023/05/24 03:22:37;;;;;;;14.90;3.80;;;8.60;99.90;;;;;;5027709;28;20237;-72
2023/05/24 03:25:07;;;;;;;13.30;3.53;;;8.70;99.90;;;;;;5028056;28;20614;-72
2023/05/24 03:27:35;;;;;;;11.23;3.93;;;8.80;99.90;;;;;;5027469;28;20254;-72
2023/05/24 03:30:02;;;;;;;12.80;4.37;;;8.80;99.90;;;;;;5031607;28;20271;-72
2023/05/24 03:32:29;;;;;;;13.00;4.40;;;8.90;99.90;;;;;;5031091;28;20224;-72
2023/05/24 03:34:58;;;;;;;13.63;3.90;;;8.90;99.90;;;;;;5031266;28;20213;-72
2023/05/24 03:37:25;;;;;;;19.20;4.33;;;8.90;99.90;;;;;;5026828;28;20252;-72
2023/05/24 03:39:51;;;;;;;17.53;4.43;;;9.00;99.90;;;;;;5018463;28;20221;-72
2023/05/24 03:42:18;;;;;;;16.43;4.20;;;9.00;99.90;;;;;;5023622;28;20229;-71
2023/05/24 03:44:45;;;;;;;11.40;3.73;;;9.00;99.90;;;;;;5026166;28;20222;-71
2023/05/24 03:47:12;;;;;;;12.20;4.00;;;9.00;99.90;;;;;;5023397;28;20217;-72
2023/05/24 03:49:38;;;;;;;12.20;4.37;;;9.10;99.90;;;;;;5026280;28;20271;-72
2023/05/24 03:52:05;;;;;;;13.87;4.40;;;9.00;99.90;;;;;;5007401;28;20203;-73
2023/05/24 03:54:32;;;;;;;11.70;4.73;;;9.10;99.90;;;;;;5021320;28;20252;-72
2023/05/24 03:56:59;;;;;;;17.03;4.53;;;9.10;99.90;;;;;;5029374;28;20263;-73
2023/05/24 03:59:25;;;;;;;16.77;4.20;;;9.20;99.90;;;;;;5030105;28;20630;-73
2023/05/24 04:01:53;;;;;;;8.90;3.53;;;9.10;99.90;;;;;;5031118;28;20226;-73
2023/05/24 04:04:20;;;;;;;16.27;4.70;;;9.20;99.90;;;;;;5023479;28;20575;-73
2023/05/24 04:06:48;;;;;;;19.97;4.83;;;9.20;99.90;;;;;;5013766;28;20629;-73
2023/05/24 04:09:15;;;;;;;25.77;5.57;;;9.30;99.90;;;;;;5025949;28;20626;-72
2023/05/24 04:11:42;;;;;;;15.10;4.43;;;9.30;99.90;;;;;;5022977;28;20190;-72
2023/05/24 04:14:08;;;;;;;13.53;4.10;;;9.30;99.90;;;;;;5011759;28;20222;-73
2023/05/24 04:16:38;;;;;;;16.00;4.33;;;9.40;99.90;;;;;;5019706;28;20198;-73
2023/05/24 04:19:05;;;;;;;14.07;4.43;;;9.50;99.90;;;;;;5022315;28;20215;-72
2023/05/24 04:21:33;;;;;;;14.27;4.83;;;9.60;99.90;;;;;;5012105;28;20206;-72
2023/05/24 04:24:00;;;;;;;19.47;5.73;;;9.60;99.90;;;;;;5012962;28;20219;-74
2023/05/24 04:26:27;;;;;;;16.37;5.00;;;9.70;99.90;;;;;;5017734;28;20194;-72
2023/05/24 04:28:54;;;;;;;18.07;4.50;;;9.80;99.90;;;;;;5026880;28;20198;-72
2023/05/24 04:31:25;;;;;;;15.80;4.33;;;9.80;99.90;;;;;;5026305;28;20238;-73
2023/05/24 04:33:52;;;;;;;14.83;4.50;;;9.90;99.90;;;;;;5018537;28;20327;-73
2023/05/24 04:36:18;;;;;;;12.10;4.60;;;9.90;99.90;;;;;;5023320;28;20208;-73
2023/05/24 04:38:46;;;;;;;11.10;4.33;;;10.00;99.90;;;;;;5026033;28;20604;-73
2023/05/24 04:41:12;;;;;;;20.20;5.00;;;10.00;99.90;;;;;;5030119;28;20739;-73
2023/05/24 04:43:39;;;;;;;14.90;4.77;;;10.10;99.90;;;;;;5022310;28;20238;-73
2023/05/24 04:46:06;;;;;;;12.93;4.37;;;10.10;99.90;;;;;;5028154;28;20231;-73
2023/05/24 04:48:35;;;;;;;17.90;4.77;;;10.10;99.90;;;;;;5025990;28;20300;-74
2023/05/24 04:51:02;;;;;;;15.43;5.37;;;10.10;99.90;;;;;;5030149;28;20210;-72
2023/05/24 04:53:29;;;;;;;17.73;4.80;;;10.20;99.90;;;;;;5030014;28;20207;-74
2023/05/24 04:55:56;;;;;;;14.20;4.53;;;10.30;99.90;;;;;;5016722;28;20207;-72
2023/05/24 04:58:22;;;;;;;16.47;4.97;;;10.40;99.90;;;;;;5029484;28;20269;-72
2023/05/24 05:00:50;;;;;;;11.40;4.80;;;;;;;;;;5023865;28;20297;-73
2023/05/24 05:03:17;;;;;;;16.13;4.67;;;10.60;99.90;;;;;;5025552;28;20228;-73
2023/05/24 05:05:45;;;;;;;13.03;4.10;;;10.70;99.90;;;;;;5023269;28;20212;-73
2023/05/24 05:08:22;;;;;;;12.17;4.57;;;10.90;99.90;;;;;;5029421;28;20575;-73
2023/05/24 05:10:59;;;;;;;14.57;4.50;;;11.00;99.90;;;;;;5020855;28;20576;-73
2023/05/24 05:13:26;;;;;;;13.97;4.17;;;11.20;99.90;;;;;;5021845;28;20272;-72
2023/05/24 05:15:53;;;;;;;15.03;4.10;;;11.30;99.90;;;;;;5029896;28;20232;-73
2023/05/24 05:18:20;;;;;;;12.87;4.17;;;11.50;99.90;;;;;;5027649;28;20666;-72
2023/05/24 05:20:46;;;;;;;16.03;3.80;;;11.60;99.90;;;;;;5027366;28;20221;-71
2023/05/24 05:23:13;;;;;;;19.20;4.40;;;11.70;99.90;;;;;;5023928;28;20737;-73
2023/05/24 05:25:40;;;;;;;9.70;3.43;;;11.80;99.90;;;;;;5023507;28;20221;-72
2023/05/24 05:28:07;;;;;;;8.73;3.67;;;11.90;99.90;;;;;;5024712;28;20671;-74
2023/05/24 05:30:33;;;;;;;11.53;3.50;;;12.00;99.90;;;;;;5029081;28;20222;-74
2023/05/24 05:33:00;;;;;;;11.70;4.23;;;12.10;99.90;;;;;;5026787;28;20217;-74
2023/05/24 05:35:27;;;;;;;19.37;4.60;;;12.40;99.90;;;;;;5028987;28;20301;-74
2023/05/24 05:37:54;;;;;;;16.57;4.27;;;13.00;99.90;;;;;;5006987;28;20263;-74
2023/05/24 05:40:36;;;;;;;17.87;5.20;;;13.90;99.90;;;;;;5076564;23;20229;-90
2023/05/24 05:43:28;;;;;;;13.32;4.40;;;14.80;99.90;;;;;;5047537;28;20244;-93
2023/05/24 05:46:35;;;;;;;13.30;3.92;;;16.50;99.90;;;;;;5044884;28;20205;-91
2023/05/24 05:52:50;;;;;;;12.73;3.60;;;17.40;99.90;;;;;;5042780;28;20177;-91
2023/05/24 05:55:55;;;;;;;10.95;2.80;;;18.00;99.90;;;;;;5053505;28;20215;-94
2023/05/24 05:58:38;;;;;;;8.07;3.08;;;18.50;99.90;;;;;;5031647;28;20227;-88
2023/05/24 06:01:40;;;;;;;15.30;3.10;;;19.00;99.90;;;;;;5025776;28;20229;-85
2023/05/24 06:04:28;;;;;;;9.13;2.92;;;19.50;99.90;;;;;;5025618;28;20236;-88
2023/05/24 06:06:59;;;;;;;8.93;2.70;;;19.90;99.90;;;;;;5023061;28;20210;-84
2023/05/24 06:09:26;;;;;;;13.65;3.40;;;20.10;99.90;;;;;;5026103;28;21019;-85
2023/05/24 06:11:53;;;;;;;8.20;2.47;;;20.10;99.90;;;;;;5023608;28;20202;-85
2023/05/24 06:14:24;;;;;;;9.38;2.75;;;20.50;99.90;;;;;;5009086;28;20733;-86
2023/05/24 06:16:58;;;;;;;10.57;3.00;;;20.60;99.90;;;;;;5022977;28;20206;-87
2023/05/24 06:19:38;;;;;;;9.93;2.80;;;20.80;99.90;;;;;;5010242;28;20653;-86
2023/05/24 06:22:08;;;;;;;10.32;2.83;;;21.20;99.90;;;;;;5027349;28;20589;-86
2023/05/24 06:24:42;;;;;;;9.48;2.72;;;21.70;99.90;;;;;;5007377;28;20720;-87
2023/05/24 06:27:17;;;;;;;10.52;2.58;;;21.90;99.90;;;;;;5021714;28;20297;-89
2023/05/24 06:29:46;;;;;;;13.18;2.42;;;21.90;99.90;;;;;;5026226;28;20217;-86
2023/05/24 06:32:13;;;;;;;7.35;3.00;;;22.00;99.90;;;;;;5027820;28;20212;-88
2023/05/24 06:34:43;;;;;;;9.45;2.58;;;21.80;99.90;;;;;;5007916;28;20603;-85
2023/05/24 06:37:14;;;;;;;11.80;2.63;;;21.80;99.90;;;;;;5012298;28;20270;-85
2023/05/24 06:39:48;;;;;;;7.32;2.50;;;22.00;99.90;;;;;;5039946;28;20238;-88
2023/05/24 06:42:21;;;;;;;11.57;2.50;;;21.60;99.90;;;;;;5073245;28;20190;-82
2023/05/24 06:44:53;;;;;;;8.10;2.70;;;21.30;99.90;;;;;;5040064;28;20202;-88
2023/05/24 06:47:34;;;;;;;9.40;2.50;;;20.90;99.90;;;;;;5012147;28;20191;-89
2023/05/24 06:50:25;;;;;;;8.38;2.15;;;20.70;99.90;;;;;;5037261;28;20198;-91
2023/05/24 06:53:01;;;;;;;9.85;2.63;;;20.80;99.90;;;;;;5015076;28;20212;-91
2023/05/24 06:55:42;;;;;;;9.20;2.20;;;21.00;99.90;;;;;;5023897;28;20224;-93
2023/05/24 06:58:29;;;;;;;5.43;2.83;;;20.60;99.90;;;;;;5022714;28;20198;-91
2023/05/24 07:01:07;;;;;;;8.48;2.10;;;19.90;99.90;;;;;;5037101;28;20640;-91
2023/05/24 07:03:58;;;;;;;11.90;2.58;;;19.30;99.90;;;;;;5018034;28;20269;-93
2023/05/24 07:07:12;;;;;;;10.98;2.53;;;18.50;99.90;;;;;;5016364;28;20600;-89
2023/05/24 07:10:16;;;;;;;;;;;;;;;;;;;;;
2023/05/24 07:13:14;;;;;;;;;;;;;;;;;;;;;
2023/05/24 07:16:04;;;;;;;12.48;2.38;;;16.70;99.90;;;;;;5029099;28;20224;-91
2023/05/24 07:18:43;;;;;;;14.88;3.22;;;16.30;99.90;;;;;;5023732;28;20212;-88
2023/05/24 07:21:34;;;;;;;9.20;2.78;;;16.20;99.90;;;;;;5015420;28;20259;-89
2023/05/24 07:24:20;;;;;;;;;;;;;;;;;;;;;
2023/05/24 07:26:52;;;;;;;11.57;2.80;;;16.00;99.90;;;;;;5034531;28;20206;-91
2023/05/24 07:29:33;;;;;;;5.75;2.33;;;15.80;99.90;;;;;;5033018;28;20214;-89
2023/05/24 07:32:28;;;;;;;7.00;2.20;;;15.60;99.90;;;;;;5024849;28;20322;-90
2023/05/24 07:35:01;;;;;;;7.78;2.47;;;15.50;99.90;;;;;;5019345;28;20206;-89
2023/05/24 07:37:38;;;;;;;13.87;3.20;;;15.50;99.90;;;;;;5022444;28;20213;-86
2023/05/24 07:40:10;;;;;;;10.57;2.83;;;15.40;99.90;;;;;;5009631;28;20890;-88
2023/05/24 07:42:49;;;;;;;9.37;2.97;;;15.40;99.90;;;;;;5013379;28;20256;-86
2023/05/24 07:45:21;;;;;;;10.77;2.77;;;15.40;99.90;;;;;;5022153;28;20225;-88
2023/05/24 07:47:55;;;;;;;15.10;2.80;;;15.40;99.90;;;;;;5022677;28;20213;-88
2023/05/24 07:50:35;;;;;;;11.60;2.53;;;15.50;99.90;;;;;;5012084;28;20220;-87
2023/05/24 07:53:11;;;;;;;11.67;2.40;;;15.50;99.90;;;;;;5024839;28;20221;-87
2023/05/24 07:55:43;;;;;;;10.43;2.37;;;15.50;99.90;;;;;;5010470;28;20213;-86
2023/05/24 07:58:13;;;;;;;7.85;2.60;;;15.60;99.90;;;;;;5010707;28;20672;-84
2023/05/24 08:00:44;;;;;;;9.20;2.72;;;15.90;99.90;;;;;;5010221;28;20222;-86
2023/05/24 08:03:29;;;;;;;8.38;2.47;;;16.10;99.90;;;;;;5011106;28;20722;-87
2023/05/24 08:06:05;;;;;;;6.70;2.42;;;16.10;99.90;;;;;;5007425;28;20206;-87
2023/05/24 08:08:54;;;;;;;9.55;3.10;;;16.10;99.90;;;;;;5009020;28;20573;-86
2023/05/24 08:11:26;;;;;;;4.72;2.35;;;16.30;99.90;;;;;;5009252;28;20236;-87
2023/05/24 08:13:55;;;;;;;5.68;2.13;;;16.50;99.90;;;;;;5009795;28;20202;-87
2023/05/24 08:16:27;;;;;;;7.28;2.47;;;16.60;99.90;;;;;;5009320;28;20197;-86
2023/05/24 08:18:55;;;;;;;10.43;2.97;;;16.80;99.90;;;;;;5026027;28;20209;-88
2023/05/24 08:21:22;;;;;;;8.43;2.50;;;16.80;99.90;;;;;;5011393;28;20202;-87
2023/05/24 08:23:49;;;;;;;11.25;2.90;;;16.90;99.90;;;;;;5011212;28;20712;-87
2023/05/24 08:26:24;;;;;;;8.25;2.35;;;17.00;99.90;;;;;;5008788;28;20220;-88
2023/05/24 08:28:52;;;;;;;8.25;2.20;;;16.90;99.90;;;;;;5027735;28;20197;-88
2023/05/24 08:31:40;;;;;;;10.77;2.38;;;16.70;99.90;;;;;;5024210;28;20202;-87
2023/05/24 08:34:38;;;;;;;9.10;2.38;;;16.80;99.90;;;;;;5024059;28;20193;-87
2023/05/24 08:37:19;;;;;;;10.18;2.67;;;16.70;99.90;;;;;;5025096;28;20212;-89
2023/05/24 08:42:39;;;;;;;9.13;3.00;;;16.80;99.90;;;;;;5018739;28;20214;-87
2023/05/24 08:45:33;;;;;;;10.50;2.42;;;16.80;99.90;;;;;;4993555;28;20857;-86
2023/05/24 08:48:08;;;;;;;5.07;2.17;;;16.90;99.90;;;;;;5027358;28;20293;-88
2023/05/24 08:51:08;;;;;;;7.88;2.35;;;16.90;99.90;;;;;;5023833;28;20264;-85
2023/05/24 08:53:37;;;;;;;8.50;2.38;;;16.90;99.90;;;;;;5028704;28;20292;-87
2023/05/24 08:56:11;;;;;;;8.38;2.97;;;16.90;99.90;;;;;;5014081;28;20549;-89
2023/05/24 08:58:45;;;;;;;6.93;2.30;;;17.00;99.90;;;;;;5014160;28;20302;-86
2023/05/24 09:01:22;;;;;;;6.05;2.20;;;17.00;99.90;;;;;;5027298;28;20312;-87
2023/05/24 09:04:01;;;;;;;10.10;2.15;;;17.10;99.90;;;;;;5028182;28;20229;-86
2023/05/24 09:10:11;;;;;;;9.27;2.30;;;17.20;99.90;;;;;;4969307;28;20696;-84
2023/05/24 09:13:28;;;;;;;10.90;2.55;;;17.00;99.90;;;;;;5019660;28;20300;-89
2023/05/24 09:16:05;;;;;;;7.88;2.63;;;16.80;99.90;;;;;;5012672;28;20228;-85
2023/05/24 09:18:47;;;;;;;7.32;2.38;;;16.70;99.90;;;;;;5013888;28;20233;-87
2023/05/24 09:21:31;;;;;;;9.10;2.65;;;16.60;99.90;;;;;;5034172;28;20208;-87
2023/05/24 09:24:10;;;;;;;12.50;2.15;;;16.60;99.90;;;;;;5027872;28;20311;-85
2023/05/24 09:26:42;;;;;;;9.65;3.13;;;16.80;99.90;;;;;;5016097;28;20203;-87
2023/05/24 09:29:30;;;;;;;7.65;2.22;;;16.80;99.90;;;;;;5011637;28;20245;-85
2023/05/24 09:32:06;;;;;;;6.25;1.98;;;17.00;99.90;;;;;;5028835;28;20217;-86
2023/05/24 09:34:46;;;;;;;8.30;2.50;;;17.00;99.90;;;;;;5027381;28;20213;-87
2023/05/24 09:38:17;;;;;;;9.98;2.50;;;17.10;99.90;;;;;;5026763;28;20210;-87
2023/05/24 09:41:10;;;;;;;8.00;2.58;;;17.00;99.90;;;;;;5020622;28;20253;-88
2023/05/24 09:43:48;;;;;;;8.93;2.67;;;17.00;99.90;;;;;;5016175;28;20222;-93
2023/05/24 09:46:23;;;;;;;6.35;2.13;;;17.10;99.90;;;;;;5018545;28;20207;-91
2023/05/24 09:49:09;;;;;;;;;;;;;;;;;;;;;
2023/05/24 09:51:54;;;;;;;11.95;2.92;;;17.20;99.90;;;;;;5032866;28;20209;-90
2023/05/24 09:54:26;;;;;;;11.57;2.58;;;17.20;99.90;;;;;;5033010;28;20289;-92
2023/05/24 09:57:10;;;;;;;14.68;2.70;;;17.30;99.90;;;;;;5021399;28;20241;-88
2023/05/24 09:59:43;;;;;;;6.82;2.30;;;17.50;99.90;;;;;;5019125;28;20213;-90
2023/05/24 10:02:12;;;;;;;7.25;2.50;;;17.60;99.90;;;;;;5029280;28;20252;-88
2023/05/24 10:07:53;;;;;;;12.10;2.80;;;17.70;99.90;;;;;;5046794;28;20456;-90
2023/05/24 10:10:42;;;;;;;;;;;;;;;;;;;;;
2023/05/24 10:13:20;;;;;;;6.15;2.25;;;17.80;99.90;;;;;;5042162;28;20193;-89
2023/05/24 10:16:01;;;;;;;9.02;2.38;;;17.80;99.90;;;;;;5030686;28;20475;-89
2023/05/24 10:18:53;;;;;;;7.38;3.10;;;17.90;99.90;;;;;;5037535;28;20194;-92
2023/05/24 10:21:33;;;;;;;7.85;2.72;;;18.00;99.90;;;;;;5061673;28;20194;-92
2023/05/24 10:24:33;;;;;;;6.45;2.50;;;18.20;99.90;;;;;;5032319;28;20619;-91
2023/05/24 10:28:13;;;;;;;7.80;2.70;;;18.10;99.90;;;;;;5036072;28;20251;-90
2023/05/24 10:32:03;;;;;;;11.48;2.72;;;18.20;99.90;;;;;;5028122;28;20214;-90
2023/05/24 10:35:22;;;;;;;6.47;2.38;;;18.60;99.90;;;;;;5018481;28;20273;-89
2023/05/24 10:38:29;;;;;;;;;;;;;;;;;;;;;
2023/05/24 10:49:43;;;;;;;8.35;2.45;;;18.90;99.90;;;;;;4860599;29;20240;-89
2023/05/24 10:52:43;;;;;;;10.25;2.35;;;19.00;99.90;;;;;;4902988;29;20244;-89
2023/05/24 10:55:48;;;;;;;7.60;2.88;;;19.00;99.90;;;;;;4931124;29;20205;-90
2023/05/24 11:02:18;;;;;;;5.57;2.40;;;19.00;99.90;;;;;;4906869;29;20204;-90
2023/05/24 11:06:01;;;;;;;7.90;2.45;;;18.80;99.90;;;;;;4940600;29;20328;-89
2023/05/24 11:09:08;;;;;;;;;;;;;;;;;;;;;
2023/05/24 11:15:53;;;;;;;10.27;3.03;;;18.70;99.90;;;;;;5046832;28;20223;-90
2023/05/24 11:18:39;;;;;;;6.40;2.30;;;19.30;99.90;;;;;;4961822;29;20196;-89
2023/05/24 11:22:03;;;;;;;;;;;;;;;;;;;;;
2023/05/24 11:24:52;;;;;;;7.82;2.58;;;19.30;99.90;;;;;;4963724;28;20240;-90
2023/05/24 11:28:09;;;;;;;;;;;;;;;;;;;;;
2023/05/24 11:30:54;;;;;;;7.72;2.70;;;19.40;99.90;;;;;;5015327;28;20671;-90
2023/05/24 11:33:35;;;;;;;4.15;2.03;;;19.70;99.90;;;;;;5039839;28;20226;-89
2023/05/24 11:36:13;;;;;;;5.43;2.38;;;19.70;99.90;;;;;;5018769;28;20209;-91
2023/05/24 11:38:46;;;;;;;8.27;2.50;;;19.90;99.90;;;;;;5017202;28;20206;-89
2023/05/24 11:41:25;;;;;;;6.35;2.13;;;20.20;99.90;;;;;;5035075;28;20694;-89
2023/05/24 11:43:58;;;;;;;8.35;2.90;;;20.10;99.90;;;;;;5033360;28;20612;-90
2023/05/24 11:46:27;;;;;;;7.85;2.80;;;20.40;99.90;;;;;;5033769;28;20209;-89
2023/05/24 11:49:10;;;;;;;5.50;2.40;;;20.40;99.90;;;;;;5035302;28;20198;-90
2023/05/24 11:51:45;;;;;;;6.95;2.40;;;20.40;99.90;;;;;;5013951;28;20284;-91
2023/05/24 11:54:17;;;;;;;6.88;2.50;;;20.30;99.90;;;;;;5020037;28;20205;-92
2023/05/24 11:56:58;;;;;;;3.67;1.95;;;20.30;99.90;;;;;;5017476;28;20226;-88
2023/05/24 11:59:36;;;;;;;6.60;2.20;;;20.30;99.90;;;;;;5037356;28;20562;-90
2023/05/24 12:02:18;;;;;;;9.68;2.78;;;20.60;99.90;;;;;;5022210;28;20190;-91
2023/05/24 12:05:11;;;;;;;6.55;2.53;;;20.50;99.90;;;;;;5015413;28;20208;-90
2023/05/24 12:07:47;;;;;;;5.38;2.22;;;20.50;99.90;;;;;;5023783;28;20209;-90
2023/05/24 12:10:17;;;;;;;6.95;2.28;;;20.30;99.90;;;;;;5024960;28;20293;-90
2023/05/24 12:12:48;;;;;;;6.65;2.20;;;20.20;99.90;;;;;;5031828;28;20221;-89
2023/05/24 12:15:19;;;;;;;8.05;2.60;;;20.20;99.90;;;;;;5035762;28;20255;-91
2023/05/24 12:17:52;;;;;;;7.70;2.45;;;20.20;99.90;;;;;;5031545;28;20204;-90
2023/05/24 12:20:20;;;;;;;7.65;2.42;;;20.10;99.90;;;;;;5038726;28;20189;-90
2023/05/24 12:22:55;;;;;;;6.22;2.63;;;20.10;99.90;;;;;;5045238;28;20208;-89
2023/05/24 12:25:31;;;;;;;8.30;2.83;;;19.80;99.90;;;;;;5040925;28;20263;-93
2023/05/24 12:28:02;;;;;;;6.90;2.50;;;19.70;99.90;;;;;;5046276;28;20217;-90
2023/05/24 12:30:30;;;;;;;5.93;2.40;;;19.60;99.90;;;;;;5036572;28;20214;-92
2023/05/24 12:33:03;;;;;;;4.43;2.20;;;19.60;99.90;;;;;;5039209;28;20183;-91
2023/05/24 12:35:32;;;;;;;7.28;2.15;;;19.50;99.90;;;;;;5048309;28;20194;-91
2023/05/24 12:38:07;;;;;;;5.40;1.98;;;19.40;99.90;;;;;;5037948;28;20221;-89
2023/05/24 12:40:39;;;;;;;6.45;2.50;;;19.40;99.90;;;;;;5052052;28;20214;-88
2023/05/24 12:43:21;;;;;;;6.28;2.40;;;19.50;99.90;;;;;;5037407;28;20197;-88
2023/05/24 12:45:52;;;;;;;5.13;2.13;;;19.60;99.90;;;;;;5046540;28;20301;-87
2023/05/24 12:51:26;;;;;;;6.70;2.20;;;20.30;99.90;;;;;;5054507;28;20265;-92
2023/05/24 12:54:09;;;;;;;7.03;2.50;;;20.60;99.90;;;;;;5037143;28;20210;-91
2023/05/24 12:56:49;;;;;;;5.90;2.10;;;20.70;99.90;;;;;;5008136;23;20229;-74
2023/05/24 12:59:18;;;;;;;7.25;2.75;;;20.50;99.90;;;;;;5091297;28;20216;-73
2023/05/24 13:01:49;;;;;;;8.32;2.58;;;20.40;99.90;;;;;;5091307;28;20208;-74
2023/05/24 13:04:21;;;;;;;4.63;2.70;;;20.40;99.90;;;;;;5091903;28;20234;-73
2023/05/24 13:06:48;;;;;;;4.45;2.10;;;20.40;99.90;;;;;;5093379;28;20199;-73
2023/05/24 13:09:17;;;;;;;5.47;2.25;;;20.30;99.90;;;;;;5087263;28;20200;-74
2023/05/24 13:11:45;;;;;;;5.43;2.22;;;20.00;99.90;;;;;;5085729;28;20250;-74
2023/05/24 13:14:14;;;;;;;6.63;2.38;;;19.70;99.90;;;;;;5085086;28;20212;-72
2023/05/24 13:16:41;;;;;;;6.07;2.42;;;19.60;99.90;;;;;;5093306;28;20353;-73
2023/05/24 13:19:09;;;;;;;4.57;2.22;;;19.80;99.90;;;;;;5065924;28;20295;-74
2023/05/24 13:21:36;;;;;;;8.20;2.28;;;19.80;99.90;;;;;;5089031;28;20245;-74
2023/05/24 13:24:05;;;;;;;7.13;2.50;;;19.90;99.90;;;;;;5091800;28;20252;-73
2023/05/24 13:26:36;;;;;;;4.78;1.90;;;20.00;99.90;;;;;;5082328;28;21119;-74
2023/05/24 13:29:04;;;;;;;4.68;2.03;;;19.90;99.90;;;;;;5088464;28;20253;-74
2023/05/24 13:31:36;;;;;;;6.45;2.13;;;19.80;99.90;;;;;;5073200;28;20280;-73
2023/05/24 13:34:03;;;;;;;4.53;2.55;;;19.70;99.90;;;;;;5089282;28;20199;-74
2023/05/24 13:36:31;;;;;;;5.45;2.03;;;19.50;99.90;;;;;;5090058;28;20192;-73
2023/05/24 13:38:58;;;;;;;5.95;2.35;;;19.30;99.90;;;;;;5090111;28;20243;-73
2023/05/24 13:41:41;;;;;;;4.38;2.10;;;19.20;99.90;;;;;;5087072;28;20583;-74
2023/05/24 13:44:08;;;;;;;3.55;2.30;;;19.10;99.90;;;;;;5084529;28;20222;-72
2023/05/24 13:46:36;;;;;;;4.78;2.28;;;19.00;99.90;;;;;;5087155;28;20203;-73
2023/05/24 13:49:04;;;;;;;6.72;2.28;;;18.90;99.90;;;;;;5088307;28;20624;-75
2023/05/24 13:51:31;;;;;;;6.05;2.50;;;18.90;99.90;;;;;;5097950;28;20675;-73
2023/05/24 13:53:59;;;;;;;8.18;2.67;;;18.80;99.90;;;;;;5091662;28;20676;-74
2023/05/24 13:56:31;;;;;;;6.53;2.83;;;18.90;99.90;;;;;;5063815;28;20319;-73
2023/05/24 13:59:01;;;;;;;8.43;2.33;;;18.80;99.90;;;;;;5042761;28;20194;-74
2023/05/24 14:01:29;;;;;;;8.23;2.40;;;18.80;99.90;;;;;;5047653;28;20205;-74
2023/05/24 14:03:56;;;;;;;6.05;2.53;;;18.80;99.90;;;;;;5045793;28;20587;-73
2023/05/24 14:06:22;;;;;;;5.72;2.50;;;18.80;99.90;;;;;;5048455;28;20574;-74
2023/05/24 14:08:49;;;;;;;5.38;2.47;;;18.70;99.90;;;;;;5048929;28;20667;-72
2023/05/24 14:11:16;;;;;;;6.88;2.60;;;18.70;99.90;;;;;;5047395;28;20209;-73